ZKEYG NZCH-NZCH
Flight info
| Callsign | ZKEYG |
|---|---|
| Flight time | 0h 3m |
| Altitude | 1500 |
| Route | NZCH CIRCUITS |
| Aircraft | PA38/L-V/N |
Departure
| Time | 2026-05-08 06:46 |
|---|---|
| Airport | Christchurch International Airport (NZCH) |
Arrival
| Time | 2026-05-08 06:49 |
|---|---|
| Airport | Christchurch International Airport (NZCH) |
| Time | Latitude | Longitude | Altitude | Speed | Heading |
|---|---|---|---|---|---|
| 2026-05-08 06:34 | -43.48502 | 172.52968 | 116 ft | 0 kts | 222° |
| 2026-05-08 06:42 | -43.48505 | 172.52965 | 116 ft | 3 kts | 220° |
| 2026-05-08 06:42 | -43.48538 | 172.52941 | 114 ft | 6 kts | 148° |
| 2026-05-08 06:42 | -43.48558 | 172.52974 | 115 ft | 3 kts | 131° |
| 2026-05-08 06:42 | -43.48572 | 172.52996 | 115 ft | 4 kts | 128° |
| 2026-05-08 06:43 | -43.48597 | 172.53037 | 115 ft | 7 kts | 126° |
| 2026-05-08 06:43 | -43.48629 | 172.53088 | 114 ft | 8 kts | 129° |
| 2026-05-08 06:43 | -43.48675 | 172.53156 | 111 ft | 13 kts | 134° |
| 2026-05-08 06:43 | -43.48720 | 172.53230 | 109 ft | 0 kts | 110° |
| 2026-05-08 06:44 | -43.48739 | 172.53270 | 109 ft | 6 kts | 125° |
| 2026-05-08 06:45 | -43.48751 | 172.53292 | 109 ft | 0 kts | 121° |
| 2026-05-08 06:45 | -43.48765 | 172.53311 | 109 ft | 11 kts | 129° |
| 2026-05-08 06:45 | -43.48738 | 172.53400 | 108 ft | 24 kts | 44° |
| 2026-05-08 06:45 | -43.48511 | 172.53668 | 169 ft | 52 kts | 42° |
| 2026-05-08 06:46 | -43.48254 | 172.53953 | 359 ft | 51 kts | 41° |
| 2026-05-08 06:46 | -43.48004 | 172.54266 | 540 ft | 46 kts | 42° |
| 2026-05-08 06:46 | -43.47736 | 172.54457 | 753 ft | 47 kts | 0° |
| 2026-05-08 06:46 | -43.47465 | 172.54034 | 832 ft | 75 kts | 320° |
| 2026-05-08 06:47 | -43.47272 | 172.53487 | 1075 ft | 62 kts | 315° |
| 2026-05-08 06:47 | -43.47150 | 172.52895 | 1264 ft | 70 kts | 300° |
| 2026-05-08 06:47 | -43.47435 | 172.52162 | 1367 ft | 109 kts | 228° |
| 2026-05-08 06:47 | -43.48105 | 172.51571 | 1377 ft | 124 kts | 220° |
| 2026-05-08 06:48 | -43.48820 | 172.50891 | 1409 ft | 124 kts | 227° |
| 2026-05-08 06:48 | -43.49508 | 172.50159 | 1443 ft | 124 kts | 230° |
| 2026-05-08 06:48 | -43.50185 | 172.49427 | 1584 ft | 119 kts | 228° |
| 2026-05-08 06:48 | -43.50802 | 172.48763 | 1595 ft | 105 kts | 229° |
| 2026-05-08 06:49 | -43.51402 | 172.48207 | 1507 ft | 110 kts | 211° |
| 2026-05-08 06:49 | -43.52150 | 172.48124 | 1433 ft | 106 kts | 147° |
| 2026-05-08 06:49 | -43.52515 | 172.48767 | 1288 ft | 71 kts | 68° |
| 2026-05-08 06:49 | -43.52351 | 172.49238 | 1149 ft | 49 kts | 34° |
| 2026-05-08 06:50 | -43.52084 | 172.49527 | 1009 ft | 52 kts | 27° |
| 2026-05-08 06:50 | -43.51800 | 172.49842 | 924 ft | 55 kts | 33° |
| 2026-05-08 06:50 | -43.51538 | 172.50181 | 795 ft | 51 kts | 32° |
| 2026-05-08 06:50 | -43.51269 | 172.50474 | 654 ft | 51 kts | 37° |
| 2026-05-08 06:51 | -43.51014 | 172.50752 | 556 ft | 50 kts | 36° |
| 2026-05-08 06:51 | -43.50713 | 172.51094 | 460 ft | 59 kts | 40° |
| 2026-05-08 06:51 | -43.50398 | 172.51463 | 383 ft | 61 kts | 43° |
| 2026-05-08 06:51 | -43.50090 | 172.51820 | 312 ft | 55 kts | 42° |
| 2026-05-08 06:52 | -43.49821 | 172.52133 | 203 ft | 49 kts | 43° |
| 2026-05-08 06:52 | -43.49581 | 172.52421 | 133 ft | 38 kts | 44° |
| 2026-05-08 06:52 | -43.49380 | 172.52660 | 133 ft | 49 kts | 41° |
| 2026-05-08 06:52 | -43.49109 | 172.52952 | 306 ft | 49 kts | 43° |
| 2026-05-08 06:53 | -43.48848 | 172.53289 | 435 ft | 49 kts | 45° |
| 2026-05-08 06:53 | -43.48683 | 172.53492 | 541 ft | 49 kts | 43° |
| 2026-05-08 06:53 | -43.48307 | 172.53900 | 749 ft | 52 kts | 19° |
| 2026-05-08 06:53 | -43.48048 | 172.53837 | 799 ft | 67 kts | 348° |
| 2026-05-08 06:54 | -43.47710 | 172.53331 | 915 ft | 77 kts | 320° |
| 2026-05-08 06:54 | -43.47484 | 172.52720 | 1165 ft | 66 kts | 321° |
| 2026-05-08 06:54 | -43.47533 | 172.51974 | 1326 ft | 104 kts | 257° |
| 2026-05-08 06:54 | -43.48184 | 172.51264 | 1362 ft | 126 kts | 223° |
| 2026-05-08 06:55 | -43.48905 | 172.50582 | 1381 ft | 133 kts | 223° |
| 2026-05-08 06:55 | -43.49650 | 172.49819 | 1363 ft | 132 kts | 226° |
| 2026-05-08 06:55 | -43.50420 | 172.49048 | 1301 ft | 137 kts | 221° |
| 2026-05-08 06:55 | -43.51226 | 172.48383 | 1282 ft | 132 kts | 210° |
| 2026-05-08 06:56 | -43.52095 | 172.48387 | 1066 ft | 119 kts | 136° |
| 2026-05-08 06:56 | -43.52447 | 172.49095 | 986 ft | 70 kts | 65° |
| 2026-05-08 06:56 | -43.52218 | 172.49529 | 873 ft | 53 kts | 23° |
| 2026-05-08 06:56 | -43.51852 | 172.49779 | 694 ft | 63 kts | 31° |
| 2026-05-08 06:57 | -43.51544 | 172.50222 | 641 ft | 64 kts | 36° |
| 2026-05-08 06:57 | -43.51139 | 172.50614 | 550 ft | 74 kts | 38° |
| 2026-05-08 06:57 | -43.50713 | 172.51103 | 458 ft | 84 kts | 43° |
| 2026-05-08 06:57 | -43.50295 | 172.51586 | 374 ft | 74 kts | 42° |
| 2026-05-08 06:58 | -43.49921 | 172.52017 | 237 ft | 69 kts | 43° |
| 2026-05-08 06:58 | -43.49576 | 172.52421 | 129 ft | 56 kts | 43° |
| 2026-05-08 06:58 | -43.49341 | 172.52687 | 120 ft | 35 kts | 44° |
| 2026-05-08 06:58 | -43.49170 | 172.52899 | 112 ft | 36 kts | 39° |
| 2026-05-08 06:59 | -43.48975 | 172.53125 | 108 ft | 34 kts | 40° |
| 2026-05-08 06:59 | -43.48846 | 172.53266 | 109 ft | 9 kts | 43° |
| 2026-05-08 06:59 | -43.48804 | 172.53320 | 109 ft | 8 kts | 45° |
| 2026-05-08 06:59 | -43.48765 | 172.53314 | 109 ft | 7 kts | 307° |
| 2026-05-08 07:00 | -43.48726 | 172.53249 | 109 ft | 11 kts | 312° |
| 2026-05-08 07:00 | -43.48690 | 172.53198 | 110 ft | 5 kts | 318° |
| 2026-05-08 07:00 | -43.48662 | 172.53146 | 112 ft | 9 kts | 311° |
| 2026-05-08 07:00 | -43.48609 | 172.53059 | 115 ft | 15 kts | 313° |
| 2026-05-08 07:01 | -43.48536 | 172.52941 | 116 ft | 9 kts | 317° |
| 2026-05-08 07:01 | -43.48510 | 172.52962 | 116 ft | 6 kts | 39° |
| 2026-05-08 07:01 | -43.48472 | 172.53007 | 115 ft | 9 kts | 40° |
| 2026-05-08 07:01 | -43.48436 | 172.53034 | 116 ft | 1 kts | 331° |
| 2026-05-08 07:02 | -43.48418 | 172.53006 | 116 ft | 5 kts | 309° |
| 2026-05-08 07:02 | -43.48406 | 172.52988 | 114 ft | 1 kts | 325° |
| 2026-05-08 07:02 | -43.48397 | 172.52964 | 115 ft | 7 kts | 303° |
| 2026-05-08 07:02 | -43.48365 | 172.52939 | 115 ft | 5 kts | 312° |
| 2026-05-08 07:03 | -43.48355 | 172.52926 | 116 ft | 4 kts | 308° |
| 2026-05-08 07:03 | -43.48352 | 172.52918 | 116 ft | 0 kts | 276° |